createdAt,value
2022-12-26T00:01:01.065Z,21.71
2022-12-26T00:06:03.947Z,21.60
2022-12-26T00:11:12.568Z,21.57
2022-12-26T00:16:16.409Z,21.54
2022-12-26T00:21:21.864Z,21.55
2022-12-26T00:26:29.397Z,21.57
2022-12-26T00:31:33.716Z,21.56
2022-12-26T00:36:36.520Z,21.53
2022-12-26T00:41:40.632Z,21.50
2022-12-26T00:46:43.573Z,21.44
2022-12-26T00:51:46.964Z,21.41
2022-12-26T00:56:51.147Z,21.46
2022-12-26T01:01:54.101Z,21.48
2022-12-26T01:06:57.019Z,21.41
2022-12-26T01:12:01.375Z,21.45
2022-12-26T01:17:04.233Z,21.41
2022-12-26T01:22:07.004Z,21.45
2022-12-26T01:27:11.115Z,21.48
2022-12-26T01:32:13.990Z,21.52
2022-12-26T01:37:17.270Z,21.53
2022-12-26T01:42:23.036Z,21.54
2022-12-26T01:47:26.915Z,21.53
2022-12-26T01:52:31.162Z,21.48
2022-12-26T01:57:38.793Z,21.41
2022-12-26T02:02:55.674Z,21.45
2022-12-26T02:07:58.525Z,21.47
2022-12-26T02:13:02.797Z,21.49
2022-12-26T02:18:05.863Z,21.47
2022-12-26T02:23:44.690Z,21.54
2022-12-26T02:29:32.977Z,21.57
2022-12-26T02:34:40.233Z,21.82
2022-12-26T02:39:52.533Z,21.83
2022-12-26T02:45:10.052Z,21.93
2022-12-26T02:50:34.812Z,21.94
2022-12-26T02:55:56.391Z,21.98
2022-12-26T03:01:18.933Z,22.02
2022-12-26T03:06:41.282Z,22.07
2022-12-26T03:12:03.396Z,22.09
2022-12-26T03:17:22.814Z,22.13
2022-12-26T03:22:33.373Z,22.20
2022-12-26T03:27:36.148Z,22.26
2022-12-26T03:32:43.661Z,22.16
2022-12-26T03:37:50.946Z,22.24
2022-12-26T03:43:14.690Z,22.28
2022-12-26T03:48:38.283Z,22.28
2022-12-26T03:54:01.930Z,22.32
2022-12-26T03:59:26.413Z,22.34
2022-12-26T04:04:46.950Z,22.36
2022-12-26T04:10:10.736Z,22.38
2022-12-26T04:15:34.983Z,22.37
2022-12-26T04:20:43.620Z,22.39
2022-12-26T04:26:07.816Z,22.32
2022-12-26T04:31:30.324Z,22.30
2022-12-26T04:36:51.605Z,22.24
2022-12-26T04:42:13.452Z,22.17
2022-12-26T04:47:16.309Z,22.14
2022-12-26T04:52:19.068Z,22.18
2022-12-26T04:57:23.267Z,22.19
2022-12-26T05:02:43.858Z,22.14
2022-12-26T05:08:04.468Z,22.10
2022-12-26T05:13:08.609Z,22.05
2022-12-26T05:18:25.289Z,22.01
2022-12-26T05:23:45.982Z,21.94
2022-12-26T05:28:55.809Z,21.85
2022-12-26T05:34:07.664Z,21.83
2022-12-26T05:39:10.460Z,21.87
2022-12-26T05:44:14.604Z,21.84
2022-12-26T05:49:17.395Z,21.85
2022-12-26T05:54:20.326Z,21.81
2022-12-26T05:59:24.749Z,21.76
2022-12-26T06:04:30.028Z,21.67
2022-12-26T06:09:32.856Z,21.62
2022-12-26T06:14:37.113Z,21.58
2022-12-26T06:19:46.355Z,21.49
2022-12-26T06:24:49.600Z,21.47
2022-12-26T06:29:53.747Z,21.41
2022-12-26T06:34:56.628Z,21.35
2022-12-26T06:39:59.656Z,21.30
2022-12-26T06:45:04.930Z,21.26
2022-12-26T06:50:08.370Z,21.23
2022-12-26T06:55:11.327Z,21.18
2022-12-26T07:00:16.850Z,21.15
2022-12-26T07:05:19.720Z,21.09
2022-12-26T07:10:22.769Z,21.07
2022-12-26T07:15:27.412Z,21.01
2022-12-26T07:20:30.236Z,20.97
2022-12-26T07:25:33.196Z,20.94
2022-12-26T07:30:37.381Z,20.91
2022-12-26T07:35:40.262Z,20.87
2022-12-26T07:40:43.046Z,20.85
2022-12-26T07:45:47.248Z,20.81
2022-12-26T07:50:51.545Z,20.78
2022-12-26T07:55:54.305Z,20.75
2022-12-26T08:01:01.783Z,20.73
2022-12-26T08:06:04.744Z,20.70
2022-12-26T08:11:08.580Z,20.69
2022-12-26T08:16:13.920Z,20.67
2022-12-26T08:21:16.812Z,20.62
2022-12-26T08:26:23.115Z,20.57
2022-12-26T08:31:27.379Z,20.59
2022-12-26T08:36:30.295Z,20.57
2022-12-26T08:41:33.174Z,20.55
2022-12-26T08:46:37.639Z,20.52
2022-12-26T08:51:40.652Z,20.51
2022-12-26T08:56:43.604Z,20.50
2022-12-26T09:01:47.967Z,20.44
2022-12-26T09:06:50.944Z,20.40
2022-12-26T09:11:53.938Z,20.39
2022-12-26T09:16:58.299Z,20.36
2022-12-26T09:22:18.695Z,20.35
2022-12-26T09:27:21.681Z,20.33
2022-12-26T09:32:26.207Z,20.34
2022-12-26T09:37:29.222Z,20.36
2022-12-26T09:42:35.582Z,20.37
2022-12-26T09:47:44.433Z,20.43
2022-12-26T09:52:49.650Z,20.50
2022-12-26T09:57:53.601Z,20.59
2022-12-26T10:02:58.966Z,20.64
2022-12-26T10:08:04.126Z,20.68
2022-12-26T10:13:11.639Z,20.74
2022-12-26T10:18:23.133Z,20.78
2022-12-26T10:23:33.427Z,20.82
2022-12-26T10:28:39.199Z,20.85
2022-12-26T10:33:46.626Z,20.83
2022-12-26T10:38:49.729Z,20.90
2022-12-26T10:43:52.579Z,20.90
2022-12-26T10:48:56.722Z,20.90
2022-12-26T10:53:59.508Z,20.92
2022-12-26T10:59:04.557Z,20.90
2022-12-26T11:04:18.828Z,20.88
2022-12-26T11:09:36.431Z,20.86
2022-12-26T11:14:40.902Z,20.82
2022-12-26T11:19:46.427Z,20.81
2022-12-26T11:25:14.597Z,20.79
2022-12-26T11:30:29.068Z,20.78
2022-12-26T11:35:37.255Z,20.76
2022-12-26T11:41:00.776Z,20.73
2022-12-26T11:46:03.868Z,20.69
2022-12-26T11:51:08.237Z,20.67
2022-12-26T11:56:11.436Z,20.64
2022-12-26T12:01:17.696Z,20.65
2022-12-26T12:06:49.310Z,20.64
2022-12-26T12:11:54.782Z,20.66
2022-12-26T12:17:04.750Z,20.67
2022-12-26T12:22:19.293Z,20.69
2022-12-26T12:27:25.855Z,20.67
2022-12-26T12:32:30.412Z,18.89
2022-12-26T12:37:43.080Z,17.75
2022-12-26T12:42:50.703Z,16.92
2022-12-26T12:48:09.615Z,16.55
2022-12-26T12:53:19.748Z,16.84
2022-12-26T12:58:25.983Z,17.83
2022-12-26T13:03:33.043Z,18.43
2022-12-26T13:08:39.536Z,18.86
2022-12-26T13:13:48.528Z,19.21
2022-12-26T13:18:56.712Z,19.47
2022-12-26T13:24:20.812Z,19.65
2022-12-26T13:29:37.510Z,19.80
2022-12-26T13:34:40.378Z,19.91
2022-12-26T13:39:44.661Z,19.99
2022-12-26T13:44:53.009Z,20.05
2022-12-26T13:49:56.607Z,20.12
2022-12-26T13:55:30.988Z,20.16
2022-12-26T14:00:43.330Z,20.18
2022-12-26T14:05:55.187Z,20.18
2022-12-26T14:11:03.969Z,20.21
2022-12-26T14:16:14.280Z,20.29
2022-12-26T14:21:46.651Z,20.35
2022-12-26T14:26:53.110Z,20.43
2022-12-26T14:32:11.779Z,20.57
2022-12-26T14:37:19.293Z,20.67
2022-12-26T14:42:42.019Z,20.78
2022-12-26T14:47:45.804Z,20.86
2022-12-26T14:52:49.782Z,20.94
2022-12-26T14:57:54.837Z,21.01
2022-12-26T15:03:42.028Z,21.02
2022-12-26T15:08:55.247Z,21.11
2022-12-26T15:14:35.594Z,21.10
2022-12-26T15:20:13.604Z,21.11
2022-12-26T15:25:33.417Z,21.20
2022-12-26T15:30:48.466Z,21.19
2022-12-26T15:35:54.718Z,21.20
2022-12-26T15:41:04.380Z,21.24
2022-12-26T15:46:12.082Z,21.29
2022-12-26T15:51:16.069Z,21.30
2022-12-26T15:56:29.536Z,21.32
2022-12-26T16:01:39.604Z,21.30
2022-12-26T16:07:01.913Z,21.49
2022-12-26T16:12:18.802Z,21.45
2022-12-26T16:17:23.738Z,21.43
2022-12-26T16:22:46.716Z,21.49
2022-12-26T16:27:51.142Z,21.53
2022-12-26T16:32:55.370Z,21.54
2022-12-26T16:37:59.366Z,21.58
2022-12-26T16:43:04.058Z,21.61
2022-12-26T16:48:09.069Z,21.64
2022-12-26T16:53:12.968Z,21.67
2022-12-26T16:58:23.843Z,21.75
2022-12-26T17:03:30.636Z,21.63
2022-12-26T17:08:33.523Z,21.78
2022-12-26T17:13:36.336Z,21.79
2022-12-26T17:18:45.758Z,21.94
2022-12-26T17:24:03.312Z,21.99
2022-12-26T17:29:06.141Z,22.10
2022-12-26T17:34:15.604Z,22.02
2022-12-26T17:39:21.665Z,22.05
2022-12-26T17:44:34.765Z,22.03
2022-12-26T17:49:38.920Z,22.04
2022-12-26T17:54:41.853Z,22.06
2022-12-26T17:59:44.798Z,22.00
2022-12-26T18:04:49.945Z,22.10
2022-12-26T18:09:53.142Z,22.12
2022-12-26T18:15:01.644Z,22.12
2022-12-26T18:20:07.858Z,22.12
2022-12-26T18:25:13.296Z,22.15
2022-12-26T18:30:17.663Z,22.16
2022-12-26T18:35:22.130Z,22.17
2022-12-26T18:40:30.499Z,22.15
2022-12-26T18:45:33.756Z,22.08
2022-12-26T18:50:38.293Z,22.02
2022-12-26T18:55:41.222Z,22.03
2022-12-26T19:00:44.245Z,22.04
2022-12-26T19:05:48.546Z,22.00
2022-12-26T19:10:51.587Z,22.05
2022-12-26T19:15:54.411Z,22.07
2022-12-26T19:20:59.167Z,22.10
2022-12-26T19:26:02.135Z,22.14
2022-12-26T19:31:08.228Z,22.17
2022-12-26T19:36:12.512Z,22.24
2022-12-26T19:41:15.353Z,22.15
2022-12-26T19:46:18.237Z,22.13
2022-12-26T19:51:22.552Z,22.17
2022-12-26T19:56:26.533Z,22.24
2022-12-26T20:01:30.591Z,22.30
2022-12-26T20:06:37.188Z,22.21
2022-12-26T20:11:40.842Z,22.18
2022-12-26T20:17:04.852Z,22.21
2022-12-26T20:22:07.975Z,22.27
2022-12-26T20:27:10.794Z,22.30
2022-12-26T20:32:13.723Z,22.16
2022-12-26T20:37:18.764Z,22.18
2022-12-26T20:42:21.644Z,22.22
2022-12-26T20:47:24.708Z,22.20
2022-12-26T20:52:28.992Z,22.20
2022-12-26T20:57:31.927Z,22.17
2022-12-26T21:02:34.918Z,22.18
2022-12-26T21:07:39.575Z,22.15
2022-12-26T21:12:42.523Z,22.19
2022-12-26T21:17:45.360Z,22.12
2022-12-26T21:22:49.650Z,22.08
2022-12-26T21:27:57.379Z,22.08
2022-12-26T21:33:01.955Z,22.06
2022-12-26T21:38:06.182Z,22.04
2022-12-26T21:43:08.976Z,22.06
2022-12-26T21:48:12.000Z,21.96
2022-12-26T21:53:16.227Z,21.94
2022-12-26T21:58:19.081Z,21.94
2022-12-26T22:03:39.651Z,21.93
2022-12-26T22:08:45.890Z,21.90
2022-12-26T22:13:49.571Z,21.89
2022-12-26T22:18:52.344Z,21.88
2022-12-26T22:23:58.980Z,21.92
2022-12-26T22:29:01.767Z,21.93
2022-12-26T22:34:06.977Z,21.94
2022-12-26T22:39:12.737Z,22.01
2022-12-26T22:44:15.998Z,21.89
2022-12-26T22:49:18.791Z,22.09
2022-12-26T22:54:22.957Z,22.10
2022-12-26T22:59:58.124Z,21.99
2022-12-26T23:04:49.154Z,22.04
2022-12-26T23:09:54.116Z,22.19
2022-12-26T23:14:57.360Z,22.08
2022-12-26T23:20:17.809Z,22.15
2022-12-26T23:25:21.969Z,22.16
2022-12-26T23:30:30.972Z,22.17
2022-12-26T23:35:33.843Z,22.16
2022-12-26T23:40:37.971Z,22.20
2022-12-26T23:45:43.605Z,22.29
2022-12-26T23:50:46.456Z,22.26
2022-12-26T23:55:50.621Z,22.14
